Time;durP1;ratioP1;P1;durP2;ratioP2;P2;SDS_P1;SDS_P2;PMS_P1;PMS_P2;Temp;Humidity;BMP_temperature;BMP_pressure;BME280_temperature;BME280_humidity;BME280_pressure;Samples;Min_cycle;Max_cycle;Signal;HPM_P1;HPM_P2
2023/07/09 00:02:16;;;;;;;3.40;3.17;;;30.80;50.00;31.60;100995.00;;;;5009426;28;20191;-49
2023/07/09 00:04:42;;;;;;;3.50;3.20;;;30.70;50.00;31.50;101000.00;;;;5009382;28;20175;-48
2023/07/09 00:07:32;;;;;;;3.30;3.10;;;30.70;50.00;31.50;100994.00;;;;5009397;28;20274;-49
2023/07/09 00:09:58;;;;;;;4.00;3.60;;;30.70;50.00;31.50;100991.00;;;;4977625;28;20278;-48
2023/07/09 00:12:24;;;;;;;3.50;3.20;;;30.70;50.00;31.50;100987.00;;;;5009126;28;20586;-48
2023/07/09 00:14:50;;;;;;;3.65;3.30;;;30.70;50.00;31.50;100985.00;;;;5008971;28;20187;-48
2023/07/09 00:17:30;;;;;;;3.65;3.35;;;30.70;50.00;31.50;100988.00;;;;5009160;28;20747;-49
2023/07/09 00:19:56;;;;;;;3.40;3.20;;;30.70;50.00;31.40;100956.00;;;;4991356;28;20199;-48
2023/07/09 00:22:22;;;;;;;3.80;3.50;;;30.70;50.00;31.20;100993.00;;;;5009202;28;20168;-50
2023/07/09 00:24:50;;;;;;;3.67;3.38;;;30.70;50.00;31.40;100996.00;;;;5009585;28;20167;-50
2023/07/09 00:27:18;;;;;;;3.45;3.20;;;30.70;50.00;31.40;100991.00;;;;5009440;28;20199;-48
2023/07/09 00:29:43;;;;;;;3.45;3.15;;;30.60;50.00;31.40;100990.00;;;;4977106;28;20198;-50
2023/07/09 00:32:15;;;;;;;3.33;3.13;;;30.60;50.00;31.30;100989.00;;;;5009390;28;20251;-48
2023/07/09 00:34:51;;;;;;;3.60;3.30;;;30.70;50.10;31.30;100991.00;;;;5008734;28;20721;-50
2023/07/09 00:37:19;;;;;;;3.70;3.40;;;30.60;50.00;31.30;100988.00;;;;5008800;28;20677;-49
2023/07/09 00:39:46;;;;;;;3.70;3.40;;;30.60;50.00;31.30;100989.00;;;;4991520;28;20399;-49
2023/07/09 00:42:17;;;;;;;3.50;3.20;;;30.60;50.00;31.30;100981.00;;;;5008749;28;20234;-48
2023/07/09 00:44:51;;;;;;;3.65;3.35;;;30.60;50.10;31.30;100986.00;;;;5008672;28;20172;-49
2023/07/09 00:47:43;;;;;;;3.30;3.10;;;30.60;50.10;31.30;100975.00;;;;5008688;28;20187;-50
2023/07/09 00:50:47;;;;;;;3.70;3.40;;;30.60;50.10;31.20;100977.00;;;;5007816;28;20188;-49
2023/07/09 00:53:29;;;;;;;3.83;3.53;;;30.50;50.10;31.20;100980.00;;;;4977966;28;20183;-49
2023/07/09 00:56:09;;;;;;;4.00;3.70;;;30.50;50.10;31.20;100976.00;;;;5008583;28;20193;-50
2023/07/09 00:58:35;;;;;;;3.63;3.33;;;30.50;50.10;31.20;100982.00;;;;5008821;28;20198;-49
2023/07/09 01:01:05;;;;;;;3.60;3.30;;;30.50;50.10;31.20;100980.00;;;;4991059;28;20286;-49
2023/07/09 01:03:44;;;;;;;3.83;3.53;;;30.50;50.10;31.10;100975.00;;;;4975199;28;20515;-50
2023/07/09 01:06:10;;;;;;;3.22;3.03;;;30.50;50.10;31.10;100974.00;;;;4991906;28;20179;-49
2023/07/09 01:08:38;;;;;;;3.63;3.33;;;30.50;50.10;31.10;100971.00;;;;4991221;28;20211;-49
2023/07/09 01:11:03;;;;;;;3.78;3.47;;;30.50;50.10;31.10;100982.00;;;;4959639;28;20244;-48
2023/07/09 01:13:32;;;;;;;3.90;3.60;;;30.40;50.10;31.10;100984.00;;;;5008716;28;20253;-50
2023/07/09 01:15:57;;;;;;;3.63;3.33;;;30.40;50.10;31.10;100982.00;;;;5008386;28;20253;-49
2023/07/09 01:18:24;;;;;;;3.42;3.13;;;30.40;50.10;31.10;100989.00;;;;5009111;28;20364;-48
2023/07/09 01:20:52;;;;;;;3.95;3.50;;;30.40;50.10;31.10;100975.00;;;;5008360;28;20639;-48
2023/07/09 01:23:18;;;;;;;3.60;3.20;;;30.40;50.10;31.10;100983.00;;;;5008660;28;20605;-49
2023/07/09 01:25:52;;;;;;;3.40;3.20;;;30.40;50.10;31.00;100981.00;;;;4990855;28;20167;-48
2023/07/09 01:28:18;;;;;;;3.42;3.22;;;30.40;50.10;31.00;100974.00;;;;5008150;28;20226;-49
2023/07/09 01:30:44;;;;;;;3.53;3.28;;;30.40;50.10;31.00;100974.00;;;;5008453;28;20167;-49
2023/07/09 01:33:10;;;;;;;3.65;3.35;;;30.30;50.20;31.00;100985.00;;;;4990741;28;20190;-49
2023/07/09 01:35:37;;;;;;;3.97;3.60;;;30.30;50.10;30.90;100986.00;;;;5008511;28;20673;-49
2023/07/09 01:38:06;;;;;;;3.67;3.38;;;30.30;50.10;30.90;100979.00;;;;5008345;28;20669;-49
2023/07/09 01:40:32;;;;;;;3.78;3.47;;;30.20;50.00;30.90;100989.00;;;;5016257;28;20211;-50
2023/07/09 01:42:58;;;;;;;3.70;3.40;;;30.20;50.10;30.90;100986.00;;;;5031875;28;20228;-53
2023/07/09 01:45:24;;;;;;;3.55;3.33;;;30.20;50.20;30.90;100985.00;;;;5008931;28;20172;-50
2023/07/09 01:47:49;;;;;;;3.67;3.38;;;30.20;50.20;30.80;100979.00;;;;5008191;28;20183;-49
2023/07/09 01:50:16;;;;;;;3.50;3.30;;;30.20;50.20;30.80;100980.00;;;;5008311;28;20200;-49
2023/07/09 01:52:42;;;;;;;3.72;3.42;;;30.20;50.20;30.80;100985.00;;;;5008793;28;20175;-50
2023/07/09 01:55:12;;;;;;;3.60;3.30;;;30.20;50.20;30.80;100980.00;;;;4991591;28;20184;-49
2023/07/09 01:57:40;;;;;;;3.42;3.20;;;30.20;50.10;30.80;100987.00;;;;5013114;28;20199;-49
2023/07/09 02:00:14;;;;;;;3.67;3.38;;;30.10;50.10;30.70;100985.00;;;;5020124;28;20301;-48
2023/07/09 02:02:45;;;;;;;3.60;3.30;;;30.10;50.10;30.70;100985.00;;;;5010212;28;20229;-49
2023/07/09 02:05:12;;;;;;;3.40;3.20;;;30.10;50.20;30.70;100920.00;;;;5011764;28;20172;-50
2023/07/09 02:07:38;;;;;;;3.70;3.40;;;30.10;50.10;30.70;100999.00;;;;5011763;28;20294;-49
2023/07/09 02:10:05;;;;;;;3.60;3.30;;;30.10;50.10;30.60;100988.00;;;;5011801;28;20172;-47
2023/07/09 02:12:30;;;;;;;3.33;3.03;;;30.10;50.10;30.60;100992.00;;;;5011620;28;20175;-49
2023/07/09 02:14:56;;;;;;;3.60;3.30;;;30.00;50.00;30.60;100998.00;;;;5011451;28;20176;-49
2023/07/09 02:17:22;;;;;;;3.28;3.05;;;30.00;49.80;30.60;100995.00;;;;5011404;28;20196;-50
2023/07/09 02:19:48;;;;;;;3.63;3.33;;;30.00;49.90;30.60;100986.00;;;;5011549;28;20673;-49
2023/07/09 02:22:13;;;;;;;3.67;3.38;;;30.00;49.80;30.50;101000.00;;;;5011657;28;20182;-48
2023/07/09 02:24:39;;;;;;;3.30;3.10;;;30.00;49.80;30.50;100983.00;;;;5011237;28;20814;-49
2023/07/09 02:27:07;;;;;;;3.50;3.30;;;30.00;50.00;30.50;100987.00;;;;5010951;28;20195;-48
2023/07/09 02:29:33;;;;;;;3.53;3.25;;;29.90;49.80;30.50;100987.00;;;;5010959;28;20530;-55
2023/07/09 02:31:59;;;;;;;3.42;3.20;;;29.90;49.80;30.50;100990.00;;;;5011335;28;20172;-49
2023/07/09 02:34:25;;;;;;;3.67;3.38;;;29.90;49.80;30.50;100988.00;;;;5010886;28;20171;-49
2023/07/09 02:36:55;;;;;;;4.82;3.40;;;29.90;49.80;30.40;101002.00;;;;5010815;28;20188;-49
2023/07/09 02:39:21;;;;;;;3.50;3.20;;;29.90;50.50;30.40;100997.00;;;;5010798;28;20171;-48
2023/07/09 02:41:47;;;;;;;3.38;3.17;;;29.90;49.90;30.40;101000.00;;;;5010685;28;20164;-48
2023/07/09 02:44:13;;;;;;;3.70;3.40;;;29.90;49.90;30.40;101004.00;;;;5010958;28;20263;-48
2023/07/09 02:46:38;;;;;;;3.53;3.22;;;29.90;49.90;30.40;101007.00;;;;5010714;28;20200;-48
2023/07/09 02:49:05;;;;;;;3.45;3.15;;;29.80;49.80;30.40;101001.00;;;;4992951;28;20163;-49
2023/07/09 02:51:31;;;;;;;3.55;3.25;;;29.80;49.80;30.30;101006.00;;;;5010620;28;20555;-48
2023/07/09 02:53:58;;;;;;;3.20;3.00;;;29.80;49.90;30.30;100955.00;;;;4992935;28;20642;-49
2023/07/09 02:56:24;;;;;;;3.67;3.38;;;29.80;50.00;30.30;101000.00;;;;5010633;28;20182;-49
2023/07/09 02:58:50;;;;;;;3.30;3.10;;;29.70;49.90;30.20;101001.00;;;;5010660;28;20175;-48
2023/07/09 03:01:16;;;;;;;3.58;3.28;;;29.70;49.90;30.30;101003.00;;;;5011179;28;20200;-49
2023/07/09 03:03:42;;;;;;;3.40;3.20;;;29.70;50.00;30.30;101005.00;;;;5011716;28;20263;-49
2023/07/09 03:06:08;;;;;;;3.60;3.30;;;29.70;49.90;30.20;101005.00;;;;5011561;28;20263;-49
2023/07/09 03:08:34;;;;;;;3.50;3.25;;;29.70;50.00;30.20;101005.00;;;;5014467;28;20241;-48
2023/07/09 03:11:00;;;;;;;3.33;3.13;;;29.70;49.90;30.20;100992.00;;;;5013040;28;20180;-49
2023/07/09 03:13:26;;;;;;;3.50;3.30;;;29.70;50.10;30.20;101010.00;;;;5011095;28;20254;-48
2023/07/09 03:15:57;;;;;;;3.35;3.15;;;29.60;50.00;30.20;101008.00;;;;5011223;28;20633;-48
2023/07/09 03:18:23;;;;;;;3.55;3.33;;;29.60;50.00;30.10;101011.00;;;;4994260;28;20199;-48
2023/07/09 03:20:49;;;;;;;3.35;3.15;;;29.60;50.10;30.10;101010.00;;;;5011222;28;20203;-49
2023/07/09 03:23:15;;;;;;;3.53;3.22;;;29.60;50.10;30.10;101018.00;;;;5011242;28;20255;-49
2023/07/09 03:25:42;;;;;;;3.42;3.22;;;29.60;50.10;30.10;101015.00;;;;5011264;28;20227;-49
2023/07/09 03:28:07;;;;;;;3.75;3.45;;;29.60;50.10;30.10;101007.00;;;;5011159;28;20210;-49
2023/07/09 03:30:33;;;;;;;3.55;3.25;;;29.50;50.10;30.00;101019.00;;;;5011370;28;20176;-49
2023/07/09 03:33:00;;;;;;;3.65;3.35;;;29.50;50.10;30.00;101019.00;;;;4993592;28;20258;-49
2023/07/09 03:35:26;;;;;;;3.60;3.30;;;29.50;50.10;30.00;101022.00;;;;5010888;28;20175;-49
2023/07/09 03:37:52;;;;;;;3.83;3.53;;;29.60;50.20;30.00;101026.00;;;;5010869;28;20705;-49
2023/07/09 03:40:22;;;;;;;3.63;3.33;;;29.50;50.20;30.00;101030.00;;;;4993459;28;20199;-48
2023/07/09 03:42:48;;;;;;;3.20;3.00;;;29.50;50.20;30.00;101036.00;;;;5010906;28;20178;-49
2023/07/09 03:45:13;;;;;;;3.30;3.10;;;29.50;50.20;30.00;101028.00;;;;5010904;28;20183;-49
2023/07/09 03:47:39;;;;;;;3.38;3.08;;;29.50;50.20;29.90;101029.00;;;;5010548;28;20716;-49
2023/07/09 03:50:08;;;;;;;3.40;3.13;;;29.50;50.20;29.90;101031.00;;;;5010874;28;20202;-48
2023/07/09 03:52:34;;;;;;;3.53;3.22;;;29.40;50.10;29.90;101031.00;;;;5010732;28;20238;-49
2023/07/09 03:55:00;;;;;;;3.58;3.28;;;29.40;50.10;29.90;101031.00;;;;5010645;28;20211;-49
2023/07/09 03:57:27;;;;;;;3.40;3.10;;;29.40;50.30;29.90;101041.00;;;;5010942;28;20195;-48
2023/07/09 03:59:52;;;;;;;3.40;3.20;;;29.40;50.30;29.90;101045.00;;;;5028558;28;20196;-48
2023/07/09 04:02:18;;;;;;;3.65;3.33;;;29.40;50.30;29.90;101037.00;;;;5025648;28;20650;-49
2023/07/09 04:04:44;;;;;;;3.40;3.20;;;29.40;50.20;29.90;101036.00;;;;4993291;28;20247;-49
2023/07/09 04:07:10;;;;;;;3.75;3.45;;;29.40;50.40;29.80;101042.00;;;;5010988;28;20198;-48
2023/07/09 04:09:35;;;;;;;3.38;3.17;;;29.30;50.30;29.80;101047.00;;;;5010572;28;20174;-48
2023/07/09 04:12:02;;;;;;;3.65;3.35;;;29.30;50.30;29.80;101044.00;;;;5010785;28;20654;-48
2023/07/09 04:14:28;;;;;;;3.65;3.35;;;29.30;50.30;29.80;101035.00;;;;5011352;28;20172;-49
2023/07/09 04:16:53;;;;;;;3.47;3.20;;;29.30;50.30;29.80;101039.00;;;;5030357;28;20267;-50
2023/07/09 04:19:19;;;;;;;3.60;3.30;;;29.30;50.30;29.80;101042.00;;;;5018084;28;20171;-48
2023/07/09 04:21:45;;;;;;;3.60;3.30;;;29.30;50.30;29.80;101048.00;;;;5010526;28;20167;-48
2023/07/09 04:24:10;;;;;;;3.58;3.38;;;29.30;50.30;29.70;101042.00;;;;5009521;28;20179;-48
2023/07/09 04:26:38;;;;;;;3.40;3.10;;;29.20;50.30;29.70;101052.00;;;;5010062;28;20194;-49
2023/07/09 04:29:05;;;;;;;3.50;3.20;;;29.20;50.20;29.70;101047.00;;;;5010066;28;20187;-49
2023/07/09 04:31:31;;;;;;;3.40;3.10;;;29.20;50.30;29.70;101049.00;;;;5010666;28;20183;-49
2023/07/09 04:33:57;;;;;;;3.67;3.38;;;29.20;50.30;29.70;101054.00;;;;5009847;28;20221;-51
2023/07/09 04:36:23;;;;;;;3.20;2.90;;;29.20;50.30;29.70;101045.00;;;;5010196;28;20167;-48
2023/07/09 04:38:49;;;;;;;3.60;3.30;;;29.20;50.40;29.70;101042.00;;;;5010507;28;20186;-49
2023/07/09 04:41:14;;;;;;;3.53;3.22;;;29.20;50.40;29.70;101045.00;;;;5010086;28;20199;-48
2023/07/09 04:43:40;;;;;;;3.30;3.10;;;29.20;50.40;29.60;101040.00;;;;5010251;28;20195;-48
2023/07/09 04:46:06;;;;;;;3.58;3.30;;;29.20;50.40;29.60;101031.00;;;;5009822;28;20168;-49
2023/07/09 04:48:31;;;;;;;3.60;2.92;;;29.10;50.40;29.60;101043.00;;;;5009965;28;20192;-49
2023/07/09 04:50:59;;;;;;;3.50;3.30;;;29.20;50.50;29.60;101045.00;;;;5009948;28;20712;-48
2023/07/09 04:53:25;;;;;;;3.58;3.30;;;29.20;50.50;29.60;101054.00;;;;5009860;28;20674;-49
2023/07/09 04:55:51;;;;;;;3.40;3.20;;;29.10;50.50;29.60;101057.00;;;;5010468;28;20202;-49
2023/07/09 04:58:18;;;;;;;3.53;3.22;;;29.10;50.50;29.60;101050.00;;;;5010693;28;20544;-49
2023/07/09 05:00:44;;;;;;;3.47;3.17;;;29.10;50.50;29.60;101044.00;;;;5009805;28;20289;-52
2023/07/09 05:03:10;;;;;;;3.35;3.13;;;29.10;50.50;29.60;101040.00;;;;5010720;28;20545;-49
2023/07/09 05:05:35;;;;;;;3.30;3.10;;;29.10;50.50;29.60;101046.00;;;;5009889;28;20247;-48
2023/07/09 05:08:01;;;;;;;3.67;3.38;;;29.10;50.50;29.60;101040.00;;;;4975946;28;20738;-48
2023/07/09 05:10:27;;;;;;;3.33;3.05;;;29.00;50.50;29.50;101040.00;;;;5009533;28;20175;-49
2023/07/09 05:12:54;;;;;;;3.13;2.92;;;29.00;50.50;29.50;101042.00;;;;5009750;28;20705;-49
2023/07/09 05:15:21;;;;;;;3.47;3.28;;;29.10;50.60;29.50;101046.00;;;;5009842;28;20207;-49
2023/07/09 05:17:47;;;;;;;3.78;3.47;;;29.00;50.60;29.50;101047.00;;;;5009548;28;20199;-49
2023/07/09 05:20:14;;;;;;;3.75;3.45;;;29.00;50.60;29.50;101038.00;;;;5009550;28;20670;-49
2023/07/09 05:22:40;;;;;;;3.85;3.55;;;29.00;50.60;29.50;101040.00;;;;4992254;28;20429;-47
2023/07/09 05:25:06;;;;;;;3.67;3.38;;;29.00;50.60;29.50;101028.00;;;;5009491;28;20832;-48
2023/07/09 05:27:32;;;;;;;3.58;3.30;;;29.00;50.60;29.50;101047.00;;;;5009633;28;20690;-49
2023/07/09 05:29:58;;;;;;;3.40;3.10;;;29.00;50.60;29.50;101043.00;;;;5009816;28;20246;-49
2023/07/09 05:32:24;;;;;;;3.95;3.65;;;29.00;50.60;29.50;101046.00;;;;5009594;28;20171;-49
2023/07/09 05:34:49;;;;;;;3.20;3.00;;;29.00;50.60;29.50;101040.00;;;;5009541;28;20471;-48
2023/07/09 05:37:15;;;;;;;3.58;3.28;;;28.90;50.70;29.50;101046.00;;;;5012584;28;20199;-49
2023/07/09 05:39:41;;;;;;;3.47;3.20;;;29.00;50.70;29.40;101040.00;;;;5013368;28;20615;-49
2023/07/09 05:42:07;;;;;;;3.42;3.15;;;29.00;50.80;29.40;101049.00;;;;5015219;28;20175;-50
2023/07/09 05:44:32;;;;;;;3.20;3.00;;;28.90;50.70;29.40;101050.00;;;;5021364;28;20187;-54
2023/07/09 05:46:58;;;;;;;3.40;3.10;;;29.00;50.80;29.40;101041.00;;;;5016166;28;20303;-49
2023/07/09 05:49:24;;;;;;;3.28;3.08;;;28.90;50.80;29.40;101043.00;;;;5013662;28;20183;-48
2023/07/09 05:51:50;;;;;;;3.50;3.20;;;28.90;50.80;29.40;101040.00;;;;5013219;28;20179;-49
2023/07/09 05:54:15;;;;;;;3.63;3.33;;;28.90;50.80;29.40;101041.00;;;;5013054;28;20174;-49
2023/07/09 05:56:41;;;;;;;3.40;3.20;;;28.90;50.80;29.40;101019.00;;;;5013295;28;20188;-49
2023/07/09 05:59:07;;;;;;;3.85;3.40;;;28.90;50.80;29.40;101041.00;;;;5013074;28;20171;-49
2023/07/09 06:01:33;;;;;;;3.50;3.20;;;28.90;50.80;29.40;101037.00;;;;5013023;28;20639;-49
2023/07/09 06:03:59;;;;;;;3.55;3.25;;;28.90;50.80;29.40;101038.00;;;;5012632;28;20203;-48
2023/07/09 06:06:25;;;;;;;3.63;3.33;;;28.90;50.80;29.40;101044.00;;;;5012865;28;20254;-47
2023/07/09 06:08:52;;;;;;;4.00;3.70;;;28.90;50.80;29.40;101033.00;;;;5013064;28;20247;-48
2023/07/09 06:11:18;;;;;;;3.40;3.20;;;28.90;50.80;29.40;101037.00;;;;4995879;28;20267;-48
2023/07/09 06:13:44;;;;;;;3.65;3.35;;;28.90;50.80;29.40;101044.00;;;;5012823;28;20258;-48
2023/07/09 06:16:09;;;;;;;3.67;3.38;;;28.90;50.90;29.40;101040.00;;;;5033579;28;20199;-47
2023/07/09 06:18:35;;;;;;;3.67;3.38;;;28.90;50.90;29.30;101046.00;;;;5007595;28;20234;-49
2023/07/09 06:21:02;;;;;;;4.03;3.72;;;28.80;51.00;29.30;101044.00;;;;5013235;28;20199;-54
2023/07/09 06:23:28;;;;;;;3.65;3.35;;;28.90;51.00;29.30;101037.00;;;;5013391;28;20172;-49
2023/07/09 06:25:54;;;;;;;4.05;3.40;;;28.90;51.00;29.30;100975.00;;;;5013596;28;20246;-49
2023/07/09 06:28:25;;;;;;;3.70;3.40;;;28.90;51.10;29.30;101044.00;;;;5014045;28;20207;-49
2023/07/09 06:30:51;;;;;;;3.70;3.40;;;28.90;51.00;29.30;101032.00;;;;5013693;28;20179;-49
2023/07/09 06:33:18;;;;;;;3.65;3.30;;;28.80;51.00;29.30;101038.00;;;;5034075;28;20155;-49
2023/07/09 06:35:52;;;;;;;3.35;3.10;;;28.90;51.10;29.30;101040.00;;;;5014688;28;20179;-47
2023/07/09 06:38:18;;;;;;;3.40;3.20;;;28.80;51.00;29.30;101039.00;;;;5012534;28;20191;-48
2023/07/09 06:40:44;;;;;;;4.38;3.40;;;28.80;51.10;29.30;101044.00;;;;5012539;28;20192;-47
2023/07/09 06:43:09;;;;;;;3.65;3.38;;;28.80;51.10;29.30;101042.00;;;;5012505;28;20172;-47
2023/07/09 06:45:35;;;;;;;3.70;3.40;;;28.80;51.20;29.30;101041.00;;;;5012209;28;20167;-49
2023/07/09 06:48:01;;;;;;;3.70;3.40;;;28.80;51.20;29.30;101042.00;;;;5011036;28;20210;-48
2023/07/09 06:50:27;;;;;;;3.70;3.40;;;28.80;51.20;29.30;101046.00;;;;5011992;28;20762;-48
2023/07/09 06:52:52;;;;;;;3.40;3.20;;;28.80;51.20;29.30;101043.00;;;;5012235;28;20182;-49
2023/07/09 06:55:18;;;;;;;3.75;3.47;;;28.80;51.30;29.30;101049.00;;;;5012072;28;20639;-48
2023/07/09 06:57:44;;;;;;;3.58;3.28;;;28.80;51.30;29.30;101042.00;;;;5012031;28;20226;-48
2023/07/09 07:00:10;;;;;;;3.70;3.40;;;28.80;51.30;29.30;101043.00;;;;5012152;28;20200;-49
2023/07/09 07:02:36;;;;;;;3.45;3.20;;;28.80;51.40;29.30;101044.00;;;;5012146;28;20220;-49
2023/07/09 07:05:02;;;;;;;3.60;3.30;;;28.80;51.40;29.30;101042.00;;;;4994313;28;20179;-48
2023/07/09 07:07:28;;;;;;;3.55;3.25;;;28.80;51.40;29.30;101038.00;;;;5012188;28;20340;-48
2023/07/09 07:09:54;;;;;;;3.75;3.45;;;28.80;51.40;29.30;101038.00;;;;5011632;28;20206;-49
2023/07/09 07:12:27;;;;;;;3.80;3.47;;;28.80;51.40;29.30;101040.00;;;;5011776;28;20218;-48
2023/07/09 07:14:54;;;;;;;3.80;3.50;;;28.80;51.40;29.30;101036.00;;;;5011637;28;20223;-48
2023/07/09 07:17:20;;;;;;;3.67;3.38;;;28.90;51.40;29.30;101037.00;;;;5011573;28;20202;-49
2023/07/09 07:19:45;;;;;;;4.13;3.72;;;28.80;51.40;29.30;101035.00;;;;5011491;28;20204;-49
2023/07/09 07:22:11;;;;;;;3.60;3.30;;;28.90;51.50;29.30;101040.00;;;;5011618;28;20164;-48
2023/07/09 07:24:37;;;;;;;3.65;3.35;;;28.90;52.20;29.30;101030.00;;;;5011290;28;20168;-49
2023/07/09 07:27:03;;;;;;;3.80;3.50;;;28.90;51.60;29.30;101032.00;;;;5011245;28;20565;-49
2023/07/09 07:29:29;;;;;;;3.75;3.45;;;28.90;51.60;29.30;101025.00;;;;5011399;28;20187;-49
2023/07/09 07:31:55;;;;;;;3.45;3.15;;;28.90;51.60;29.30;101030.00;;;;5011443;28;20283;-49
2023/07/09 07:34:21;;;;;;;3.80;3.50;;;28.90;51.70;29.40;101027.00;;;;5011439;28;20251;-49
2023/07/09 07:36:49;;;;;;;3.80;3.50;;;28.90;51.70;29.40;101025.00;;;;5011518;28;20191;-49
2023/07/09 07:39:15;;;;;;;3.78;3.47;;;28.80;52.10;29.40;101023.00;;;;5011539;28;20172;-49
2023/07/09 07:41:41;;;;;;;3.67;3.38;;;28.90;52.10;29.40;101020.00;;;;5011204;28;20258;-49
2023/07/09 07:44:08;;;;;;;3.83;3.50;;;28.90;52.00;29.40;101028.00;;;;5010900;28;20168;-48
2023/07/09 07:46:34;;;;;;;3.65;3.35;;;28.90;52.30;29.40;101027.00;;;;5010811;28;20172;-49
2023/07/09 07:49:00;;;;;;;3.92;3.63;;;28.90;52.40;29.40;101034.00;;;;5010924;28;20546;-48
2023/07/09 07:51:26;;;;;;;3.83;3.40;;;28.90;52.60;29.40;101023.00;;;;5010876;28;20180;-49
2023/07/09 07:53:52;;;;;;;3.72;3.42;;;28.90;52.80;29.40;101026.00;;;;5010732;28;20190;-50
2023/07/09 07:56:18;;;;;;;3.40;3.10;;;28.90;53.00;29.50;101021.00;;;;4992945;28;20183;-49
2023/07/09 07:58:44;;;;;;;3.50;3.20;;;28.90;53.90;29.50;101022.00;;;;5011011;28;20222;-49
2023/07/09 08:01:09;;;;;;;3.90;3.30;;;28.90;54.10;29.50;101020.00;;;;5010481;28;20713;-49
2023/07/09 08:03:35;;;;;;;3.78;3.47;;;28.90;53.70;29.50;101024.00;;;;5010886;28;20171;-49
2023/07/09 08:06:01;;;;;;;3.83;3.53;;;29.00;53.80;29.50;101018.00;;;;5010481;28;20167;-48
2023/07/09 08:08:27;;;;;;;4.05;3.40;;;28.90;53.80;29.50;101030.00;;;;5006536;28;20543;-48
2023/07/09 08:11:01;;;;;;;3.80;3.50;;;29.00;54.00;29.50;101027.00;;;;5002603;28;20230;-49
2023/07/09 08:13:27;;;;;;;4.00;3.70;;;29.00;53.90;29.50;101022.00;;;;5010760;28;20270;-47
2023/07/09 08:15:52;;;;;;;3.60;3.30;;;29.00;54.00;29.50;101026.00;;;;5002675;28;20256;-50
2023/07/09 08:18:18;;;;;;;3.95;3.63;;;28.90;54.00;29.50;101026.00;;;;5012432;28;20195;-50
2023/07/09 08:20:44;;;;;;;4.30;3.90;;;29.00;54.10;29.50;101020.00;;;;5013482;28;20579;-48
2023/07/09 08:23:10;;;;;;;4.30;3.90;;;29.00;54.10;29.50;101020.00;;;;5009205;28;20178;-49
2023/07/09 08:25:36;;;;;;;4.20;3.90;;;28.90;54.50;29.50;101016.00;;;;5010384;28;20160;-48
2023/07/09 08:28:01;;;;;;;7.53;4.50;;;28.90;54.50;29.50;101023.00;;;;5010369;28;20207;-49
2023/07/09 08:30:27;;;;;;;5.30;4.50;;;28.90;54.40;29.60;101009.00;;;;4992925;28;20179;-49
2023/07/09 08:32:54;;;;;;;5.18;4.68;;;29.00;54.40;29.60;101005.00;;;;5021866;28;20236;-50
2023/07/09 08:35:20;;;;;;;6.53;4.88;;;29.00;54.50;29.60;100998.00;;;;5011614;28;20186;-49
2023/07/09 08:37:46;;;;;;;7.80;5.10;;;29.00;54.70;29.60;101001.00;;;;5009608;28;20199;-49
2023/07/09 08:40:16;;;;;;;5.22;4.63;;;29.00;54.20;29.60;100997.00;;;;4999702;28;20200;-50
2023/07/09 08:42:47;;;;;;;6.85;4.90;;;29.00;54.00;29.60;100996.00;;;;4995818;28;20266;-50
2023/07/09 08:45:19;;;;;;;6.10;4.85;;;29.00;54.20;29.60;100994.00;;;;5009495;28;20174;-50
2023/07/09 08:48:05;;;;;;;6.10;4.60;;;29.10;54.60;29.60;100989.00;;;;5008165;28;20753;-48
2023/07/09 08:50:41;;;;;;;5.30;4.80;;;29.10;54.60;29.60;100991.00;;;;5025901;28;20160;-49
2023/07/09 08:53:27;;;;;;;5.95;5.07;;;29.10;54.60;29.70;100987.00;;;;4994132;28;20179;-49
2023/07/09 08:55:52;;;;;;;5.47;4.97;;;29.10;54.60;29.70;100987.00;;;;4988901;28;20188;-49
2023/07/09 08:58:25;;;;;;;7.30;5.20;;;29.20;54.80;29.70;100986.00;;;;4988861;28;20769;-50
2023/07/09 09:00:59;;;;;;;5.38;4.88;;;29.20;54.70;29.70;100985.00;;;;4983950;28;20207;-49
2023/07/09 09:03:53;;;;;;;5.90;4.70;;;29.20;54.70;29.70;100990.00;;;;4986628;28;20262;-49
2023/07/09 09:06:27;;;;;;;5.57;5.00;;;29.20;54.40;29.70;100986.00;;;;4986759;28;20184;-50
2023/07/09 09:09:22;;;;;;;6.80;5.05;;;29.30;53.90;29.80;100988.00;;;;4989757;28;20260;-48
2023/07/09 09:12:02;;;;;;;5.20;4.70;;;29.30;53.20;29.80;100981.00;;;;4986117;28;20188;-49
2023/07/09 09:14:36;;;;;;;5.72;4.95;;;29.30;53.40;29.80;100981.00;;;;4994301;28;20175;-50
2023/07/09 09:17:11;;;;;;;6.15;5.07;;;29.30;53.30;29.80;100979.00;;;;5011644;28;20265;-49
2023/07/09 09:19:56;;;;;;;5.72;4.80;;;29.40;53.10;29.90;100985.00;;;;4994706;28;20200;-50
2023/07/09 09:22:26;;;;;;;8.63;5.10;;;29.40;52.60;29.90;100974.00;;;;5010557;28;20735;-50
2023/07/09 09:25:24;;;;;;;5.40;4.90;;;29.50;52.70;29.90;100979.00;;;;5010683;28;20180;-48
2023/07/09 09:27:50;;;;;;;5.80;5.18;;;29.40;52.60;29.90;100979.00;;;;5009954;28;20697;-48
2023/07/09 09:30:23;;;;;;;5.68;4.97;;;29.50;53.00;29.90;100977.00;;;;4992806;28;20199;-50
2023/07/09 09:32:58;;;;;;;5.35;4.82;;;29.50;53.30;30.00;100975.00;;;;4991969;28;20231;-51
2023/07/09 09:35:30;;;;;;;6.13;5.32;;;29.60;52.80;30.00;100982.00;;;;4992851;28;20403;-50
2023/07/09 09:37:57;;;;;;;5.85;5.35;;;29.60;52.50;30.00;100972.00;;;;4992773;28;20829;-49
2023/07/09 09:40:25;;;;;;;5.95;5.35;;;29.60;52.70;30.10;100986.00;;;;4992765;28;20208;-49
2023/07/09 09:42:55;;;;;;;5.50;4.97;;;29.60;52.40;30.10;100980.00;;;;4993127;28;20223;-49
2023/07/09 09:45:28;;;;;;;5.57;4.93;;;29.60;52.00;30.10;100974.00;;;;4992453;28;20180;-49
2023/07/09 09:47:59;;;;;;;5.70;4.95;;;29.60;51.80;30.10;100979.00;;;;4991577;28;20208;-48
2023/07/09 09:50:26;;;;;;;4.95;4.55;;;29.70;52.10;30.20;100985.00;;;;4991429;28;20176;-52
2023/07/09 09:52:51;;;;;;;5.47;4.97;;;29.70;52.30;30.20;100981.00;;;;4991387;28;20173;-48
2023/07/09 09:55:28;;;;;;;6.32;4.93;;;29.70;52.60;30.30;100980.00;;;;4991640;28;20755;-50
2023/07/09 09:57:54;;;;;;;6.22;4.95;;;29.70;52.70;30.30;100973.00;;;;4991516;28;20697;-49
2023/07/09 10:00:24;;;;;;;7.30;4.80;;;29.80;52.80;30.30;100977.00;;;;4992374;28;20208;-49
2023/07/09 10:02:50;;;;;;;5.63;4.85;;;29.80;52.30;30.30;100971.00;;;;4998200;28;20613;-50
2023/07/09 10:05:16;;;;;;;5.47;4.80;;;29.90;51.60;30.40;100972.00;;;;4991975;28;20168;-48
2023/07/09 10:08:00;;;;;;;8.15;5.25;;;29.90;52.00;30.40;100969.00;;;;4992324;28;20756;-49
2023/07/09 10:10:28;;;;;;;5.55;5.00;;;29.90;52.10;30.40;100973.00;;;;4991116;28;20568;-49
2023/07/09 10:13:30;;;;;;;5.65;4.82;;;29.90;52.60;30.50;100960.00;;;;4991090;28;20205;-49
2023/07/09 10:16:02;;;;;;;5.10;4.60;;;29.90;51.90;30.50;100965.00;;;;4970014;28;20266;-50
2023/07/09 10:18:33;;;;;;;5.63;4.60;;;29.90;52.00;30.50;100949.00;;;;4997355;28;20199;-50
2023/07/09 10:21:08;;;;;;;5.75;4.75;;;30.00;51.40;30.50;100948.00;;;;5004540;28;20243;-49
2023/07/09 10:23:45;;;;;;;4.93;4.53;;;30.10;51.50;30.60;100947.00;;;;5000247;28;20179;-49
2023/07/09 10:26:29;;;;;;;6.10;4.82;;;30.10;51.90;30.60;100942.00;;;;4989643;28;20168;-49
2023/07/09 10:29:46;;;;;;;6.05;5.15;;;30.10;51.50;30.70;100950.00;;;;4988497;28;20195;-49
2023/07/09 10:32:40;;;;;;;5.30;4.80;;;30.10;51.60;30.70;100944.00;;;;4985723;28;20169;-50
2023/07/09 10:35:29;;;;;;;5.55;5.05;;;30.20;52.30;30.70;100949.00;;;;4991360;28;20180;-49
2023/07/09 10:38:34;;;;;;;6.03;4.90;;;30.20;51.40;30.70;100947.00;;;;4991079;28;20191;-48
2023/07/09 10:41:00;;;;;;;5.97;4.90;;;30.20;50.90;30.70;100944.00;;;;4994370;28;20702;-50
2023/07/09 10:43:49;;;;;;;6.03;4.70;;;30.20;50.10;30.80;100931.00;;;;4985696;28;20677;-49
2023/07/09 10:46:21;;;;;;;5.10;4.60;;;30.30;50.50;30.80;100953.00;;;;4982391;28;20259;-48
2023/07/09 10:48:50;;;;;;;5.45;4.90;;;30.30;51.20;30.90;100944.00;;;;4981304;28;20879;-49
2023/07/09 10:51:40;;;;;;;5.13;4.63;;;30.40;50.60;30.90;100956.00;;;;4990721;28;20252;-49
2023/07/09 10:54:30;;;;;;;7.22;5.07;;;30.40;50.20;31.00;100950.00;;;;4970498;28;20204;-50
2023/07/09 10:57:10;;;;;;;7.15;5.40;;;30.50;49.60;31.00;100949.00;;;;5006157;28;20243;-50